createdAt,value
2022-08-03T00:01:18.795Z,63.76
2022-08-03T00:02:50.737Z,63.49
2022-08-03T00:04:22.813Z,63.29
2022-08-03T00:06:05.951Z,63.61
2022-08-03T00:07:38.860Z,63.92
2022-08-03T00:09:10.924Z,63.42
2022-08-03T00:10:42.765Z,63.83
2022-08-03T00:12:14.892Z,64.81
2022-08-03T00:13:47.066Z,64.47
2022-08-03T00:15:19.117Z,64.53
2022-08-03T00:16:51.193Z,64.71
2022-08-03T00:18:23.051Z,64.71
2022-08-03T00:19:57.875Z,64.83
2022-08-03T00:21:29.808Z,64.81
2022-08-03T00:23:01.758Z,65.89
2022-08-03T00:24:36.225Z,65.42
2022-08-03T00:26:08.099Z,65.31
2022-08-03T00:27:39.911Z,65.59
2022-08-03T00:29:11.862Z,65.15
2022-08-03T00:30:43.727Z,66.42
2022-08-03T00:32:16.973Z,66.60
2022-08-03T00:33:59.023Z,65.79
2022-08-03T00:35:50.041Z,66.34
2022-08-03T00:37:22.990Z,66.44
2022-08-03T00:39:12.905Z,66.10
2022-08-03T00:40:44.790Z,66.64
2022-08-03T00:42:17.019Z,67.21
2022-08-03T00:43:49.058Z,66.69
2022-08-03T00:45:25.756Z,68.02
2022-08-03T00:46:57.654Z,66.99
2022-08-03T00:48:33.383Z,67.80
2022-08-03T00:50:06.073Z,67.64
2022-08-03T00:51:37.932Z,67.21
2022-08-03T00:53:13.617Z,67.78
2022-08-03T00:54:45.531Z,68.38
2022-08-03T00:56:18.186Z,68.48
2022-08-03T00:57:50.047Z,67.97
2022-08-03T00:59:22.047Z,68.11
2022-08-03T01:00:53.935Z,68.72
2022-08-03T01:02:29.376Z,68.55
2022-08-03T01:04:01.353Z,69.00
2022-08-03T01:05:57.838Z,68.49
2022-08-03T01:07:57.454Z,68.95
2022-08-03T01:09:41.714Z,68.70
2022-08-03T01:11:24.868Z,69.01
2022-08-03T01:13:05.019Z,69.06
2022-08-03T01:14:47.093Z,68.81
2022-08-03T01:16:36.656Z,68.95
2022-08-03T01:18:19.211Z,69.19
2022-08-03T01:20:01.874Z,70.05
2022-08-03T01:21:40.038Z,69.55
2022-08-03T01:23:17.534Z,69.91
2022-08-03T01:25:07.667Z,69.84
2022-08-03T01:27:05.774Z,69.44
2022-08-03T01:29:02.282Z,70.29
2022-08-03T01:30:35.553Z,70.31
2022-08-03T01:32:58.411Z,70.17
2022-08-03T01:34:12.202Z,70.36
2022-08-03T01:35:51.078Z,70.91
2022-08-03T01:37:28.447Z,70.53
2022-08-03T01:39:02.449Z,69.67
2022-08-03T01:40:36.915Z,70.01
2022-08-03T01:42:10.596Z,70.39
2022-08-03T01:44:27.623Z,70.71
2022-08-03T01:45:36.778Z,71.22
2022-08-03T01:47:32.605Z,70.60
2022-08-03T01:49:09.376Z,71.09
2022-08-03T01:50:42.117Z,71.44
2022-08-03T01:52:14.838Z,72.11
2022-08-03T01:53:47.334Z,71.97
2022-08-03T01:55:20.437Z,72.22
2022-08-03T01:56:55.737Z,72.74
2022-08-03T01:58:28.365Z,71.75
2022-08-03T02:00:00.079Z,72.44
2022-08-03T02:02:28.311Z,71.83
2022-08-03T02:03:27.353Z,72.96
2022-08-03T02:05:01.579Z,71.79
2022-08-03T02:07:00.237Z,72.62
2022-08-03T02:08:31.131Z,72.11
2022-08-03T02:10:06.212Z,71.71
2022-08-03T02:11:38.523Z,71.80
2022-08-03T02:13:10.886Z,71.82
2022-08-03T02:14:44.621Z,72.10
2022-08-03T02:16:18.515Z,72.52
2022-08-03T02:17:50.604Z,71.53
2022-08-03T02:19:23.606Z,72.03
2022-08-03T02:20:56.090Z,72.11
2022-08-03T02:22:29.340Z,72.13
2022-08-03T02:24:01.310Z,72.01
2022-08-03T02:25:35.615Z,71.35
2022-08-03T02:27:15.311Z,71.72
2022-08-03T02:28:49.901Z,71.33
2022-08-03T02:30:25.425Z,71.43
2022-08-03T02:31:59.909Z,71.68
2022-08-03T02:34:21.688Z,71.96
2022-08-03T02:35:54.587Z,71.49
2022-08-03T02:37:29.347Z,71.55
2022-08-03T02:39:01.900Z,72.17
2022-08-03T02:40:34.203Z,72.06
2022-08-03T02:42:10.337Z,72.06
2022-08-03T02:44:07.011Z,72.06
2022-08-03T02:45:45.593Z,71.75
2022-08-03T02:47:21.597Z,72.21
2022-08-03T02:48:54.920Z,72.16
2022-08-03T02:50:27.752Z,72.49
2022-08-03T02:52:00.310Z,72.69
2022-08-03T02:53:33.864Z,72.98
2022-08-03T02:55:07.248Z,73.10
2022-08-03T02:56:39.950Z,73.37
2022-08-03T02:58:12.135Z,72.76
2022-08-03T02:59:44.469Z,72.67
2022-08-03T03:01:19.436Z,72.98
2022-08-03T03:02:52.195Z,73.06
2022-08-03T03:04:26.354Z,73.05
2022-08-03T03:06:05.749Z,73.11
2022-08-03T03:07:46.869Z,73.11
2022-08-03T03:09:27.203Z,73.68
2022-08-03T03:11:13.809Z,73.32
2022-08-03T03:12:45.791Z,73.76
2022-08-03T03:14:18.108Z,73.37
2022-08-03T03:16:06.492Z,73.13
2022-08-03T03:17:39.405Z,73.48
2022-08-03T03:19:12.969Z,73.96
2022-08-03T03:20:45.668Z,73.49
2022-08-03T03:22:17.605Z,74.04
2022-08-03T03:23:49.796Z,72.96
2022-08-03T03:25:21.739Z,74.26
2022-08-03T03:26:54.888Z,73.86
2022-08-03T03:28:26.783Z,74.55
2022-08-03T03:30:30.323Z,75.25
2022-08-03T03:32:02.631Z,75.52
2022-08-03T03:33:35.530Z,76.02
2022-08-03T03:35:08.085Z,76.68
2022-08-03T03:36:39.956Z,76.39
2022-08-03T03:38:11.987Z,76.77
2022-08-03T03:39:43.871Z,76.91
2022-08-03T03:41:15.784Z,76.70
2022-08-03T03:42:47.771Z,76.76
2022-08-03T03:44:19.682Z,77.46
2022-08-03T03:45:54.865Z,77.80
2022-08-03T03:47:32.270Z,77.35
2022-08-03T03:49:07.448Z,77.90
2022-08-03T03:50:43.375Z,78.48
2022-08-03T03:52:17.022Z,78.28
2022-08-03T03:54:02.505Z,77.96
2022-08-03T03:55:34.401Z,79.01
2022-08-03T03:57:06.267Z,79.13
2022-08-03T03:58:38.177Z,79.48
2022-08-03T04:00:11.481Z,79.79
2022-08-03T04:01:43.323Z,79.25
2022-08-03T04:03:15.360Z,79.38
2022-08-03T04:05:05.797Z,79.57
2022-08-03T04:06:55.959Z,79.53
2022-08-03T04:08:46.514Z,79.30
2022-08-03T04:10:41.626Z,80.22
2022-08-03T04:12:13.945Z,80.60
2022-08-03T04:14:04.457Z,79.98
2022-08-03T04:15:38.637Z,79.75
2022-08-03T04:17:12.391Z,79.58
2022-08-03T04:18:48.652Z,79.05
2022-08-03T04:20:21.211Z,79.78
2022-08-03T04:21:57.000Z,79.13
2022-08-03T04:23:31.575Z,79.37
2022-08-03T04:25:05.970Z,79.25
2022-08-03T04:26:40.604Z,78.89
2022-08-03T04:28:31.370Z,79.47
2022-08-03T04:30:06.555Z,78.48
2022-08-03T04:31:39.218Z,78.98
2022-08-03T04:33:11.059Z,79.36
2022-08-03T04:34:45.093Z,78.86
2022-08-03T04:36:26.444Z,78.74
2022-08-03T04:38:06.229Z,79.34
2022-08-03T04:39:39.676Z,78.93
2022-08-03T04:41:11.959Z,79.64
2022-08-03T04:42:46.352Z,79.29
2022-08-03T04:44:21.099Z,79.55
2022-08-03T04:46:01.588Z,79.39
2022-08-03T04:47:34.101Z,78.45
2022-08-03T04:49:06.637Z,78.81
2022-08-03T04:50:38.670Z,78.85
2022-08-03T04:52:11.031Z,78.18
2022-08-03T04:53:43.791Z,78.16
2022-08-03T04:55:28.346Z,78.61
2022-08-03T04:57:00.198Z,78.97
2022-08-03T04:58:34.592Z,78.39
2022-08-03T05:00:06.974Z,79.00
2022-08-03T05:01:40.356Z,78.87
2022-08-03T05:03:23.505Z,80.01
2022-08-03T05:04:56.384Z,79.48
2022-08-03T05:06:28.274Z,80.10
2022-08-03T05:08:04.185Z,80.22
2022-08-03T05:09:50.455Z,81.18
2022-08-03T05:11:27.485Z,80.60
2022-08-03T05:12:59.457Z,81.20
2022-08-03T05:14:31.308Z,80.70
2022-08-03T05:16:03.153Z,80.42
2022-08-03T05:17:35.014Z,80.35
2022-08-03T05:19:07.717Z,80.08
2022-08-03T05:20:39.676Z,80.06
2022-08-03T05:22:11.501Z,80.77
2022-08-03T05:23:44.450Z,80.59
2022-08-03T05:25:17.372Z,79.89
2022-08-03T05:26:51.823Z,80.63
2022-08-03T05:28:23.731Z,80.12
2022-08-03T05:29:55.589Z,80.73
2022-08-03T05:31:27.392Z,80.75
2022-08-03T05:33:00.092Z,80.25
2022-08-03T05:34:32.144Z,80.42
2022-08-03T05:36:04.636Z,80.65
2022-08-03T05:37:36.980Z,81.01
2022-08-03T05:39:08.775Z,80.81
2022-08-03T05:40:40.648Z,80.68
2022-08-03T05:42:28.956Z,81.20
2022-08-03T05:44:01.628Z,80.51
2022-08-03T05:45:35.932Z,80.78
2022-08-03T05:47:07.878Z,80.45
2022-08-03T05:48:39.831Z,80.36
2022-08-03T05:50:12.904Z,80.29
2022-08-03T05:51:44.937Z,79.89
2022-08-03T05:53:16.808Z,80.28
2022-08-03T05:54:56.962Z,79.74
2022-08-03T05:56:29.448Z,79.69
2022-08-03T05:58:03.946Z,79.91
2022-08-03T05:59:38.995Z,79.48
2022-08-03T06:01:11.019Z,79.55
2022-08-03T06:02:43.353Z,79.69
2022-08-03T06:04:15.281Z,78.96
2022-08-03T06:05:55.554Z,79.66
2022-08-03T06:07:32.885Z,78.65
2022-08-03T06:09:04.809Z,78.14
2022-08-03T06:10:38.368Z,79.27
2022-08-03T06:12:14.093Z,78.71
2022-08-03T06:13:49.715Z,78.68
2022-08-03T06:15:21.634Z,77.88
2022-08-03T06:16:53.527Z,77.29
2022-08-03T06:18:25.910Z,76.89
2022-08-03T06:19:57.739Z,76.96
2022-08-03T06:21:29.578Z,76.69
2022-08-03T06:23:02.954Z,76.05
2022-08-03T06:24:34.869Z,76.76
2022-08-03T06:26:06.812Z,76.21
2022-08-03T06:27:40.310Z,76.45
2022-08-03T06:29:12.121Z,75.97
2022-08-03T06:30:44.884Z,75.87
2022-08-03T06:32:16.701Z,75.80
2022-08-03T06:34:33.405Z,75.65
2022-08-03T06:35:45.243Z,75.32
2022-08-03T06:37:17.060Z,75.27
2022-08-03T06:38:48.903Z,74.96
2022-08-03T06:40:31.583Z,75.16
2022-08-03T06:42:04.282Z,74.76
2022-08-03T06:43:38.154Z,74.41
2022-08-03T06:45:32.144Z,74.40
2022-08-03T06:47:04.261Z,74.44
2022-08-03T06:48:36.084Z,74.80
2022-08-03T06:50:16.423Z,74.59
2022-08-03T06:52:03.687Z,74.56
2022-08-03T06:53:38.758Z,73.98
2022-08-03T06:55:10.612Z,74.18
2022-08-03T06:56:42.564Z,73.00
2022-08-03T06:58:14.462Z,72.17
2022-08-03T07:00:08.445Z,71.71
2022-08-03T07:01:38.256Z,71.25
2022-08-03T07:03:10.124Z,71.35
2022-08-03T07:04:42.047Z,70.52
2022-08-03T07:06:13.900Z,69.69
2022-08-03T07:07:46.181Z,69.31
2022-08-03T07:09:18.022Z,68.12
2022-08-03T07:10:50.141Z,68.06
2022-08-03T07:12:22.106Z,68.35
2022-08-03T07:13:54.012Z,68.26
2022-08-03T07:15:54.326Z,67.48
2022-08-03T07:17:18.682Z,65.92
2022-08-03T07:18:50.594Z,67.19
2022-08-03T07:20:22.817Z,66.66
2022-08-03T07:21:56.470Z,67.13
2022-08-03T07:23:34.760Z,67.04
2022-08-03T07:25:06.996Z,66.48
2022-08-03T07:26:38.841Z,66.14
2022-08-03T07:28:10.800Z,67.16
2022-08-03T07:29:45.338Z,66.36
2022-08-03T07:31:17.189Z,65.18
2022-08-03T07:32:49.871Z,65.33
2022-08-03T07:34:22.673Z,63.72
2022-08-03T07:35:54.680Z,64.62
2022-08-03T07:37:26.504Z,64.73
2022-08-03T07:38:58.512Z,62.44
2022-08-03T07:40:31.599Z,62.16
2022-08-03T07:42:04.322Z,62.15
2022-08-03T07:43:36.185Z,61.61
2022-08-03T07:45:08.978Z,60.84
2022-08-03T07:46:48.658Z,60.79
2022-08-03T07:48:20.577Z,59.21
2022-08-03T07:49:55.834Z,59.67
2022-08-03T07:51:27.753Z,58.55
2022-08-03T07:52:59.990Z,58.81
2022-08-03T07:54:32.243Z,59.06
2022-08-03T07:56:10.763Z,57.04
2022-08-03T07:57:44.222Z,57.82
2022-08-03T07:59:18.433Z,56.17
2022-08-03T08:00:55.183Z,56.88
2022-08-03T08:02:27.127Z,57.14
2022-08-03T08:03:59.525Z,54.74
2022-08-03T08:05:31.656Z,55.86
2022-08-03T08:07:03.577Z,55.39
2022-08-03T08:08:35.435Z,55.50
2022-08-03T08:10:11.041Z,54.33
2022-08-03T08:11:42.868Z,54.73
2022-08-03T08:13:14.782Z,54.66
2022-08-03T08:14:46.904Z,56.46
2022-08-03T08:16:18.803Z,56.14
2022-08-03T08:18:03.494Z,56.35
2022-08-03T08:19:36.788Z,53.99
2022-08-03T08:21:13.378Z,55.10
2022-08-03T08:22:45.391Z,53.34
2022-08-03T08:24:20.359Z,53.75
2022-08-03T08:25:52.960Z,51.76
2022-08-03T08:27:27.448Z,51.17
2022-08-03T08:28:59.382Z,50.04
2022-08-03T08:30:32.804Z,49.24
2022-08-03T08:32:04.973Z,49.80
2022-08-03T08:34:02.461Z,49.52
2022-08-03T08:35:29.118Z,48.80
2022-08-03T08:37:01.795Z,48.83
2022-08-03T08:38:38.756Z,48.56
2022-08-03T08:40:11.443Z,48.98
2022-08-03T08:41:45.765Z,49.23
2022-08-03T08:43:17.860Z,48.31
2022-08-03T08:44:49.897Z,48.67
2022-08-03T08:46:23.859Z,47.69
2022-08-03T08:48:00.985Z,48.69
2022-08-03T08:49:36.306Z,47.44
2022-08-03T08:51:09.869Z,47.25
2022-08-03T08:52:42.518Z,47.94
2022-08-03T08:54:15.828Z,46.99
2022-08-03T08:55:56.938Z,46.95
2022-08-03T08:57:43.084Z,45.92
2022-08-03T08:59:15.724Z,46.64
2022-08-03T09:00:48.610Z,47.11
2022-08-03T09:02:20.579Z,46.21
2022-08-03T09:03:54.319Z,46.29
2022-08-03T09:05:53.883Z,47.23
2022-08-03T09:07:20.305Z,47.24
2022-08-03T09:08:52.673Z,46.37
2022-08-03T09:10:26.803Z,46.37
2022-08-03T09:12:20.900Z,45.84
2022-08-03T09:13:50.739Z,45.84
2022-08-03T09:15:31.734Z,45.07
2022-08-03T09:17:04.643Z,45.47
2022-08-03T09:18:36.555Z,45.39
2022-08-03T09:20:10.041Z,45.13
2022-08-03T09:21:41.923Z,45.62
2022-08-03T09:23:59.466Z,44.62
2022-08-03T09:25:27.381Z,44.29
2022-08-03T09:26:59.347Z,44.35
2022-08-03T09:28:58.050Z,43.60
2022-08-03T09:30:34.724Z,44.48
2022-08-03T09:32:07.033Z,44.25
2022-08-03T09:33:48.859Z,44.31
2022-08-03T09:35:51.767Z,42.79
2022-08-03T09:37:20.917Z,44.02
2022-08-03T09:39:42.493Z,42.36
2022-08-03T09:41:20.124Z,43.18
2022-08-03T09:42:58.789Z,43.94
2022-08-03T09:44:38.629Z,43.22
2022-08-03T09:46:10.518Z,42.71
2022-08-03T09:47:44.943Z,42.88
2022-08-03T09:49:17.685Z,41.38
2022-08-03T09:50:58.535Z,41.25
2022-08-03T09:52:50.078Z,41.57
2022-08-03T09:54:31.891Z,40.62
2022-08-03T09:56:34.728Z,42.04
2022-08-03T09:58:09.307Z,41.66
2022-08-03T09:59:41.547Z,40.43
2022-08-03T10:01:24.215Z,40.78
2022-08-03T10:03:04.853Z,40.70
2022-08-03T10:04:47.472Z,41.00
2022-08-03T10:06:20.667Z,41.70
2022-08-03T10:07:52.598Z,41.06
2022-08-03T10:09:24.428Z,40.92
2022-08-03T10:11:01.117Z,39.17
2022-08-03T10:12:33.078Z,38.96
2022-08-03T10:14:19.711Z,38.25
2022-08-03T10:16:22.547Z,37.58
2022-08-03T10:17:43.635Z,37.88
2022-08-03T10:19:16.489Z,39.32
2022-08-03T10:20:56.081Z,38.81
2022-08-03T10:22:29.845Z,37.41
2022-08-03T10:24:07.155Z,38.09
2022-08-03T10:25:40.822Z,36.08
2022-08-03T10:27:13.756Z,37.86
2022-08-03T10:28:50.629Z,36.23
2022-08-03T10:30:26.502Z,35.52
2022-08-03T10:31:59.117Z,35.77
2022-08-03T10:33:51.695Z,35.66
2022-08-03T10:35:29.720Z,35.41
2022-08-03T10:37:04.597Z,36.18
2022-08-03T10:38:41.583Z,35.85
2022-08-03T10:40:33.271Z,36.81
2022-08-03T10:42:14.704Z,34.19
2022-08-03T10:44:13.774Z,33.98
2022-08-03T10:45:46.383Z,34.38
2022-08-03T10:47:18.671Z,34.76
2022-08-03T10:48:52.545Z,34.09
2022-08-03T10:50:25.326Z,34.30
2022-08-03T10:51:57.273Z,33.08
2022-08-03T10:53:55.047Z,32.87
2022-08-03T10:55:56.217Z,32.23
2022-08-03T10:57:50.447Z,32.58
2022-08-03T10:59:46.018Z,32.37
2022-08-03T11:01:19.289Z,33.30
2022-08-03T11:03:18.698Z,34.08
2022-08-03T11:05:26.477Z,33.20
2022-08-03T11:07:17.717Z,32.11
2022-08-03T11:08:51.205Z,31.48
2022-08-03T11:10:32.315Z,31.63
2022-08-03T11:12:30.836Z,33.73
2022-08-03T11:14:04.935Z,32.15
2022-08-03T11:15:37.551Z,32.01
2022-08-03T11:17:14.475Z,33.32
2022-08-03T11:18:57.498Z,33.11
2022-08-03T11:20:54.191Z,31.77
2022-08-03T11:22:28.402Z,31.50
2022-08-03T11:24:04.309Z,33.04
2022-08-03T11:26:12.372Z,32.24
2022-08-03T11:27:44.317Z,33.09
2022-08-03T11:29:29.560Z,32.54
2022-08-03T11:31:49.746Z,32.91
2022-08-03T11:33:30.035Z,32.24
2022-08-03T11:35:25.595Z,32.08
2022-08-03T11:37:30.115Z,33.93
2022-08-03T11:39:16.962Z,35.22
2022-08-03T11:40:50.939Z,33.26
2022-08-03T11:42:25.897Z,31.61
2022-08-03T11:43:57.793Z,32.06
2022-08-03T11:45:31.338Z,32.68
2022-08-03T11:47:03.185Z,31.04
2022-08-03T11:48:45.772Z,31.69
2022-08-03T11:50:19.134Z,31.84
2022-08-03T11:51:54.145Z,31.52
2022-08-03T11:53:26.003Z,31.32
2022-08-03T11:54:57.897Z,32.66
2022-08-03T11:56:47.915Z,31.14
2022-08-03T11:59:01.643Z,31.18
2022-08-03T12:00:32.400Z,30.72
2022-08-03T12:02:12.147Z,31.32
2022-08-03T12:03:44.136Z,32.19
2022-08-03T12:05:16.073Z,31.01
2022-08-03T12:07:01.294Z,31.00
2022-08-03T12:08:34.156Z,32.89
2022-08-03T12:10:11.567Z,31.76
2022-08-03T12:11:50.909Z,31.63
2022-08-03T12:14:08.809Z,31.12
2022-08-03T12:15:36.500Z,31.88
2022-08-03T12:17:08.377Z,31.10
2022-08-03T12:18:40.282Z,30.36
2022-08-03T12:20:22.196Z,30.38
2022-08-03T12:22:06.581Z,29.85
2022-08-03T12:23:39.271Z,30.30
2022-08-03T12:25:39.265Z,30.33
2022-08-03T12:27:11.864Z,31.90
2022-08-03T12:28:50.130Z,29.77
2022-08-03T12:30:23.717Z,29.51
2022-08-03T12:31:56.613Z,30.21
2022-08-03T12:33:28.685Z,30.36
2022-08-03T12:35:06.035Z,30.77
2022-08-03T12:36:39.211Z,29.69
2022-08-03T12:38:12.983Z,30.61
2022-08-03T12:40:02.511Z,30.05
2022-08-03T12:41:39.710Z,32.78
2022-08-03T12:43:13.197Z,30.94
2022-08-03T12:44:46.382Z,31.42
2022-08-03T12:46:20.217Z,30.40
2022-08-03T12:48:00.488Z,31.73
2022-08-03T12:49:54.148Z,30.16
2022-08-03T12:51:27.687Z,31.06
2022-08-03T12:53:01.271Z,30.56
2022-08-03T12:54:34.700Z,30.44
2022-08-03T12:56:06.666Z,30.96
2022-08-03T12:57:42.219Z,30.80
2022-08-03T12:59:32.505Z,31.08
2022-08-03T13:01:09.677Z,31.31
2022-08-03T13:02:46.329Z,31.15
2022-08-03T13:04:35.290Z,31.23
2022-08-03T13:06:25.857Z,32.10
2022-08-03T13:07:58.425Z,32.06
2022-08-03T13:09:33.264Z,31.19
2022-08-03T13:11:55.373Z,32.05
2022-08-03T13:13:20.884Z,31.80
2022-08-03T13:14:58.659Z,31.60
2022-08-03T13:16:30.514Z,32.09
2022-08-03T13:18:02.456Z,31.79
2022-08-03T13:19:38.696Z,30.85
2022-08-03T13:21:10.649Z,31.95
2022-08-03T13:22:43.555Z,31.20
2022-08-03T13:24:15.533Z,31.36
2022-08-03T13:25:55.149Z,30.75
2022-08-03T13:28:03.893Z,30.03
2022-08-03T13:29:21.188Z,31.80
2022-08-03T13:30:54.886Z,31.43
2022-08-03T13:32:26.898Z,32.46
2022-08-03T13:33:58.811Z,32.39
2022-08-03T13:35:30.680Z,32.11
2022-08-03T13:37:10.264Z,30.97
2022-08-03T13:38:42.393Z,29.49
2022-08-03T13:40:14.771Z,30.84
2022-08-03T13:41:47.181Z,32.21
2022-08-03T13:43:20.049Z,32.28
2022-08-03T13:44:52.062Z,30.46
2022-08-03T13:46:24.232Z,30.71
2022-08-03T13:47:56.143Z,30.52
2022-08-03T13:49:29.085Z,31.02
2022-08-03T13:51:05.330Z,30.20
2022-08-03T13:52:46.515Z,30.96
2022-08-03T13:54:21.431Z,29.68
2022-08-03T13:55:55.995Z,31.89
2022-08-03T13:58:04.545Z,31.05
2022-08-03T13:59:20.905Z,30.76
2022-08-03T14:00:52.752Z,31.57
2022-08-03T14:02:27.900Z,32.08
2022-08-03T14:03:59.873Z,32.17
2022-08-03T14:05:32.376Z,31.69
2022-08-03T14:07:04.531Z,31.70
2022-08-03T14:08:36.439Z,31.71
2022-08-03T14:10:08.839Z,31.77
2022-08-03T14:12:07.172Z,32.48
2022-08-03T14:13:33.860Z,32.02
2022-08-03T14:15:10.190Z,31.07
2022-08-03T14:16:43.372Z,31.97
2022-08-03T14:18:28.384Z,31.03
2022-08-03T14:20:25.957Z,31.25
2022-08-03T14:22:06.184Z,31.64
2022-08-03T14:23:38.966Z,29.57
2022-08-03T14:25:10.970Z,29.01
2022-08-03T14:26:46.235Z,29.53
2022-08-03T14:28:23.236Z,32.09
2022-08-03T14:29:59.797Z,29.73
2022-08-03T14:32:11.292Z,31.06
2022-08-03T14:33:24.351Z,29.84
2022-08-03T14:34:56.283Z,32.03
2022-08-03T14:36:28.202Z,31.91
2022-08-03T14:38:00.148Z,32.54
2022-08-03T14:40:01.814Z,31.44
2022-08-03T14:41:23.917Z,31.14
2022-08-03T14:42:56.086Z,31.36
2022-08-03T14:44:27.983Z,31.69
2022-08-03T14:45:59.915Z,30.64
2022-08-03T14:47:31.877Z,30.25
2022-08-03T14:50:36.395Z,30.52
2022-08-03T14:50:57.271Z,32.15
2022-08-03T14:52:29.263Z,30.22
2022-08-03T14:54:09.353Z,29.59
2022-08-03T14:55:49.762Z,30.80
2022-08-03T14:57:26.159Z,30.67
2022-08-03T14:58:58.029Z,30.54
2022-08-03T15:00:29.821Z,32.34
2022-08-03T15:02:10.192Z,31.92
2022-08-03T15:03:47.905Z,32.58
2022-08-03T15:05:19.783Z,32.72
2022-08-03T15:06:51.691Z,30.95
2022-08-03T15:08:27.495Z,31.18
2022-08-03T15:10:02.379Z,30.57
2022-08-03T15:11:34.592Z,33.20
2022-08-03T15:13:06.428Z,33.07
2022-08-03T15:14:38.287Z,31.28
2022-08-03T15:16:10.297Z,32.25
2022-08-03T15:17:59.641Z,31.64
2022-08-03T15:20:00.511Z,32.48
2022-08-03T15:21:46.885Z,31.85
2022-08-03T15:23:17.397Z,31.76
2022-08-03T15:24:49.265Z,32.72
2022-08-03T15:26:32.243Z,32.02
2022-08-03T15:28:07.152Z,32.49
2022-08-03T15:30:04.759Z,32.73
2022-08-03T15:31:30.940Z,33.27
2022-08-03T15:33:03.264Z,33.26
2022-08-03T15:34:35.109Z,31.54
2022-08-03T15:36:07.092Z,31.13
2022-08-03T15:37:41.498Z,31.24
2022-08-03T15:39:13.487Z,31.75
2022-08-03T15:40:45.893Z,32.92
2022-08-03T15:42:17.680Z,32.22
2022-08-03T15:43:50.497Z,33.07
2022-08-03T15:45:22.535Z,32.90
2022-08-03T15:46:54.395Z,33.39
2022-08-03T15:48:26.519Z,33.02
2022-08-03T15:49:58.383Z,32.84
2022-08-03T15:51:30.296Z,31.85
2022-08-03T15:53:02.116Z,30.61
2022-08-03T15:54:33.994Z,32.00
2022-08-03T15:56:12.136Z,32.63
2022-08-03T15:59:04.117Z,32.41
2022-08-03T15:59:38.016Z,32.26
2022-08-03T16:01:16.392Z,30.98
2022-08-03T16:02:51.053Z,32.40
2022-08-03T16:04:29.983Z,31.52
2022-08-03T16:06:05.882Z,31.61
2022-08-03T16:08:03.689Z,31.16
2022-08-03T16:09:42.368Z,30.95
2022-08-03T16:11:16.163Z,31.33
2022-08-03T16:12:48.806Z,31.30
2022-08-03T16:14:34.818Z,32.58
2022-08-03T16:16:12.219Z,32.04
2022-08-03T16:17:44.091Z,32.53
2022-08-03T16:19:16.113Z,31.97
2022-08-03T16:20:48.254Z,32.34
2022-08-03T16:22:22.920Z,32.68
2022-08-03T16:23:55.179Z,32.29
2022-08-03T16:25:28.049Z,32.03
2022-08-03T16:27:00.456Z,32.87
2022-08-03T16:28:34.276Z,30.58
2022-08-03T16:30:07.335Z,30.48
2022-08-03T16:31:39.716Z,31.72
2022-08-03T16:33:23.468Z,31.54
2022-08-03T16:34:55.325Z,32.76
2022-08-03T16:36:27.198Z,32.54
2022-08-03T16:38:10.089Z,32.53
2022-08-03T16:39:42.888Z,32.34
2022-08-03T16:41:14.750Z,31.26
2022-08-03T16:42:47.316Z,31.97
2022-08-03T16:44:28.271Z,31.63
2022-08-03T16:46:00.081Z,31.54
2022-08-03T16:47:31.976Z,32.40
2022-08-03T16:49:03.990Z,32.14
2022-08-03T16:50:36.510Z,31.02
2022-08-03T16:52:08.413Z,31.92
2022-08-03T16:54:05.473Z,31.74
2022-08-03T16:55:48.728Z,31.68
2022-08-03T16:57:56.079Z,33.68
2022-08-03T16:59:17.351Z,33.71
2022-08-03T17:00:51.005Z,31.68
2022-08-03T17:02:26.056Z,31.99
2022-08-03T17:04:04.620Z,33.24
2022-08-03T17:05:47.194Z,32.70
2022-08-03T17:07:20.465Z,31.65
2022-08-03T17:08:55.479Z,32.77
2022-08-03T17:10:27.698Z,32.31
2022-08-03T17:11:59.505Z,33.10
2022-08-03T17:13:38.871Z,31.22
2022-08-03T17:15:11.696Z,31.37
2022-08-03T17:16:51.901Z,31.93
2022-08-03T17:18:26.101Z,33.10
2022-08-03T17:19:59.711Z,34.50
2022-08-03T17:21:36.607Z,32.82
2022-08-03T17:23:34.105Z,34.18
2022-08-03T17:25:09.578Z,33.96
2022-08-03T17:26:55.450Z,33.51
2022-08-03T17:28:49.565Z,34.17
2022-08-03T17:30:21.872Z,32.15
2022-08-03T17:31:57.230Z,32.28
2022-08-03T17:33:35.430Z,32.60
2022-08-03T17:35:08.493Z,31.96
2022-08-03T17:38:41.274Z,33.41
2022-08-03T17:40:17.369Z,34.50
2022-08-03T17:41:50.672Z,34.88
2022-08-03T17:44:13.580Z,34.22
2022-08-03T17:45:17.957Z,34.43
2022-08-03T17:46:51.523Z,33.06
2022-08-03T17:48:25.689Z,33.30
2022-08-03T17:49:57.568Z,34.13
2022-08-03T17:51:53.048Z,35.92
2022-08-03T17:53:30.747Z,36.42
2022-08-03T17:55:55.981Z,35.56
2022-08-03T17:57:26.368Z,36.56
2022-08-03T17:59:08.603Z,36.53
2022-08-03T18:01:02.300Z,36.26
2022-08-03T18:03:04.025Z,36.96
2022-08-03T18:04:41.246Z,36.24
2022-08-03T18:06:13.466Z,36.44
2022-08-03T18:08:02.535Z,36.48
2022-08-03T18:10:04.772Z,37.22
2022-08-03T18:13:25.549Z,37.34
2022-08-03T18:15:07.593Z,37.23
2022-08-03T18:17:10.293Z,37.47
2022-08-03T18:18:44.147Z,37.19
2022-08-03T18:20:31.022Z,37.47
2022-08-03T18:22:06.800Z,37.78
2022-08-03T18:23:42.116Z,37.45
2022-08-03T18:25:45.694Z,37.26
2022-08-03T18:27:47.654Z,37.25
2022-08-03T18:30:53.596Z,37.57
2022-08-03T18:32:03.047Z,37.04
2022-08-03T18:34:17.133Z,37.42
2022-08-03T18:35:58.149Z,37.58
2022-08-03T18:37:33.378Z,38.05
2022-08-03T18:39:31.034Z,38.33
2022-08-03T18:41:12.679Z,37.61
2022-08-03T18:42:51.074Z,38.71
2022-08-03T18:44:52.538Z,39.03
2022-08-03T18:46:43.617Z,39.19
2022-08-03T18:48:27.035Z,38.75
2022-08-03T18:50:36.095Z,38.93
2022-08-03T18:52:37.748Z,38.79
2022-08-03T18:54:51.058Z,38.74
2022-08-03T18:56:49.873Z,39.02
2022-08-03T18:58:40.837Z,40.05
2022-08-03T19:00:17.205Z,39.49
2022-08-03T19:02:04.323Z,39.77
2022-08-03T19:03:43.282Z,39.62
2022-08-03T19:05:18.822Z,39.45
2022-08-03T19:06:57.607Z,40.42
2022-08-03T19:08:51.476Z,40.20
2022-08-03T19:10:26.701Z,39.78
2022-08-03T19:12:14.101Z,40.75
2022-08-03T19:13:51.471Z,40.13
2022-08-03T19:15:36.385Z,40.63
2022-08-03T19:17:10.700Z,40.47
2022-08-03T19:18:42.854Z,40.43
2022-08-03T19:20:14.828Z,40.71
2022-08-03T19:21:48.793Z,40.50
2022-08-03T19:23:34.028Z,41.27
2022-08-03T19:25:07.512Z,40.52
2022-08-03T19:26:44.099Z,41.33
2022-08-03T19:28:21.256Z,41.30
2022-08-03T19:30:08.296Z,40.59
2022-08-03T19:31:59.355Z,40.93
2022-08-03T19:33:57.418Z,41.03
2022-08-03T19:35:51.185Z,41.76
2022-08-03T19:37:24.190Z,41.71
2022-08-03T19:39:10.128Z,41.87
2022-08-03T19:40:45.524Z,41.81
2022-08-03T19:42:31.016Z,41.49
2022-08-03T19:44:07.066Z,41.53
2022-08-03T19:47:38.572Z,42.28
2022-08-03T19:49:18.509Z,42.65
2022-08-03T19:50:53.020Z,43.02
2022-08-03T19:52:31.583Z,42.91
2022-08-03T19:54:07.054Z,43.12
2022-08-03T19:55:49.048Z,42.56
2022-08-03T19:57:24.081Z,43.26
2022-08-03T19:58:58.147Z,43.27
2022-08-03T20:00:35.823Z,43.35
2022-08-03T20:02:10.213Z,43.16
2022-08-03T20:03:57.806Z,43.51
2022-08-03T20:05:30.164Z,43.71
2022-08-03T20:07:22.243Z,43.91
2022-08-03T20:08:54.989Z,44.53
2022-08-03T20:10:27.315Z,44.67
2022-08-03T20:11:59.258Z,44.41
2022-08-03T20:13:31.719Z,44.32
2022-08-03T20:15:14.124Z,44.36
2022-08-03T20:16:51.723Z,43.91
2022-08-03T20:18:23.598Z,44.17
2022-08-03T20:19:55.619Z,45.25
2022-08-03T20:21:32.139Z,44.40
2022-08-03T20:23:18.056Z,44.85
2022-08-03T20:24:53.081Z,45.06
2022-08-03T20:26:28.834Z,45.52
2022-08-03T20:28:14.779Z,45.72
2022-08-03T20:30:06.812Z,45.38
2022-08-03T20:31:40.383Z,45.14
2022-08-03T20:33:12.516Z,45.22
2022-08-03T20:34:51.072Z,46.27
2022-08-03T20:36:27.697Z,45.57
2022-08-03T20:38:00.002Z,45.54
2022-08-03T20:39:32.288Z,45.63
2022-08-03T20:41:04.651Z,45.30
2022-08-03T20:42:36.691Z,45.61
2022-08-03T20:44:08.570Z,45.74
2022-08-03T20:45:59.579Z,46.21
2022-08-03T20:49:29.955Z,46.10
2022-08-03T20:51:19.938Z,45.97
2022-08-03T20:53:12.102Z,46.05
2022-08-03T20:54:45.037Z,46.05
2022-08-03T20:56:18.321Z,46.43
2022-08-03T20:57:51.747Z,46.13
2022-08-03T20:59:23.974Z,46.67
2022-08-03T21:00:57.676Z,45.93
2022-08-03T21:02:31.195Z,46.48
2022-08-03T21:04:09.510Z,46.38
2022-08-03T21:05:51.373Z,46.51
2022-08-03T21:08:04.096Z,47.05
2022-08-03T21:09:19.765Z,46.98